Time;durP1;ratioP1;P1;durP2;ratioP2;P2;SDS_P1;SDS_P2;PMS_P1;PMS_P2;Temp;Humidity;BMP_temperature;BMP_pressure;BME280_temperature;BME280_humidity;BME280_pressure;Samples;Min_cycle;Max_cycle;Signal;HPM_P1;HPM_P2
2023/07/21 00:01:49;;;;;;;0.98;0.90;;;24.70;52.70;;;;;;6120603;22;86956;-93
2023/07/21 00:04:17;;;;;;;1.27;0.80;;;24.70;52.20;;;;;;6118633;22;89179;-90
2023/07/21 00:06:43;;;;;;;3.35;1.63;;;24.70;52.60;;;;;;6146104;22;87338;-91
2023/07/21 00:09:12;;;;;;;2.15;1.10;;;24.70;52.20;;;;;;6120863;22;90366;-90
2023/07/21 00:11:39;;;;;;;1.10;1.08;;;24.70;52.60;;;;;;6120783;22;87384;-89
2023/07/21 00:14:07;;;;;;;1.50;1.00;;;24.70;53.30;;;;;;6120566;22;89182;-91
2023/07/21 00:16:33;;;;;;;1.30;1.07;;;24.70;52.40;;;;;;6146854;22;88036;-90
2023/07/21 00:19:01;;;;;;;1.10;1.00;;;24.70;52.50;;;;;;6119366;22;89078;-92
2023/07/21 00:21:26;;;;;;;0.88;0.80;;;24.70;52.40;;;;;;6119752;22;88242;-89
2023/07/21 00:23:52;;;;;;;1.33;1.08;;;24.70;52.20;;;;;;6121496;22;88982;-90
2023/07/21 00:26:18;;;;;;;1.30;0.85;;;24.70;52.30;;;;;;6120532;22;89932;-91
2023/07/21 00:28:44;;;;;;;0.95;0.88;;;24.70;52.10;;;;;;6120796;22;89854;-92
2023/07/21 00:31:10;;;;;;;1.38;1.00;;;24.70;52.70;;;;;;6121876;22;86821;-90
2023/07/21 00:33:36;;;;;;;1.13;1.00;;;24.70;52.60;;;;;;6121001;22;88372;-89
2023/07/21 00:36:04;;;;;;;0.90;0.90;;;24.60;52.50;;;;;;6123080;22;89921;-90
2023/07/21 00:38:29;;;;;;;1.33;1.20;;;24.70;52.50;;;;;;6121420;22;89180;-92
2023/07/21 00:40:55;;;;;;;0.98;0.88;;;24.60;52.70;;;;;;6121030;22;87232;-93
2023/07/21 00:43:21;;;;;;;0.98;0.93;;;24.70;52.80;;;;;;6120061;22;91977;-91
2023/07/21 00:45:47;;;;;;;1.30;1.20;;;24.60;52.30;;;;;;6146945;22;88978;-91
2023/07/21 00:48:16;;;;;;;1.17;1.08;;;24.60;52.90;;;;;;6149284;22;89040;-90
2023/07/21 00:50:52;;;;;;;1.00;0.90;;;24.60;52.90;;;;;;6148670;22;86864;-91
2023/07/21 00:53:19;;;;;;;1.00;0.93;;;24.60;52.60;;;;;;6121477;22;88476;-91
2023/07/21 00:55:47;;;;;;;0.98;0.93;;;24.60;52.20;;;;;;6121905;22;90072;-92
2023/07/21 00:58:17;;;;;;;1.33;0.90;;;24.60;52.20;;;;;;6122168;22;89890;-89
2023/07/21 01:00:43;;;;;;;1.58;1.20;;;24.60;52.30;;;;;;6122402;22;87287;-92
2023/07/21 01:03:11;;;;;;;0.85;0.85;;;24.60;52.30;;;;;;6120710;22;89023;-91
2023/07/21 01:05:41;;;;;;;1.27;0.90;;;24.60;52.40;;;;;;6119503;22;90738;-89
2023/07/21 01:08:07;;;;;;;0.70;0.70;;;24.60;52.50;;;;;;6119188;22;89405;-91
2023/07/21 01:10:35;;;;;;;0.82;0.82;;;24.60;52.60;;;;;;6146616;22;88000;-91
2023/07/21 01:13:01;;;;;;;0.90;0.90;;;24.60;52.60;;;;;;6120463;22;89414;-92
2023/07/21 01:15:28;;;;;;;0.90;0.80;;;24.50;52.60;;;;;;6147559;22;87983;-89
2023/07/21 01:17:55;;;;;;;1.60;1.02;;;24.60;52.70;;;;;;6147780;22;87791;-91
2023/07/21 01:20:23;;;;;;;1.20;0.90;;;24.60;53.30;;;;;;6120731;22;86987;-92
2023/07/21 01:23:04;;;;;;;0.85;0.80;;;24.60;52.60;;;;;;6121212;22;87927;-92
2023/07/21 01:25:31;;;;;;;1.13;1.02;;;24.50;52.50;;;;;;6119371;22;89930;-90
2023/07/21 01:27:58;;;;;;;0.90;0.82;;;24.60;52.60;;;;;;6121340;22;89817;-89
2023/07/21 01:30:26;;;;;;;0.93;0.93;;;24.50;52.50;;;;;;6120989;22;87463;-90
2023/07/21 01:32:53;;;;;;;1.42;1.30;;;24.50;52.40;;;;;;6122139;22;90076;-91
2023/07/21 01:35:21;;;;;;;1.20;1.00;;;24.50;52.60;;;;;;6119177;22;90299;-89
2023/07/21 01:37:49;;;;;;;0.90;0.90;;;24.50;52.50;;;;;;6147758;22;88028;-93
2023/07/21 01:40:16;;;;;;;1.10;1.00;;;24.50;52.60;;;;;;6120373;22;87473;-89
2023/07/21 01:42:45;;;;;;;1.20;1.10;;;24.50;52.30;;;;;;6148283;22;87550;-92
2023/07/21 01:45:11;;;;;;;1.13;1.02;;;24.50;52.60;;;;;;6122198;22;89419;-92
2023/07/21 01:47:36;;;;;;;0.95;0.85;;;24.50;52.70;;;;;;6120584;22;90107;-93
2023/07/21 01:50:04;;;;;;;1.33;1.23;;;24.50;52.60;;;;;;6120541;22;87495;-91
2023/07/21 01:52:32;;;;;;;1.40;1.13;;;24.50;52.20;;;;;;6148499;22;86675;-92
2023/07/21 01:55:04;;;;;;;1.00;0.90;;;24.50;52.50;;;;;;6149338;22;87746;-93
2023/07/21 01:57:36;;;;;;;1.23;1.10;;;24.60;52.60;;;;;;6121202;22;88393;-91
2023/07/21 02:00:04;;;;;;;2.67;1.05;;;24.50;52.50;;;;;;6120730;22;88252;-88
2023/07/21 02:02:30;;;;;;;1.10;1.00;;;24.60;52.40;;;;;;6121280;22;89156;-92
2023/07/21 02:04:56;;;;;;;1.13;1.02;;;24.50;52.00;;;;;;6120709;22;89326;-91
2023/07/21 02:07:22;;;;;;;1.08;0.90;;;24.50;52.60;;;;;;6148410;22;87707;-90
2023/07/21 02:09:52;;;;;;;0.82;0.80;;;24.50;52.30;;;;;;6122200;22;87332;-93
2023/07/21 02:12:18;;;;;;;0.80;0.80;;;24.50;52.40;;;;;;6148230;22;87548;-93
2023/07/21 02:14:44;;;;;;;1.15;0.95;;;24.50;52.10;;;;;;6148237;22;88190;-92
2023/07/21 02:17:09;;;;;;;1.23;1.13;;;24.50;52.40;;;;;;6116828;22;89487;-94
2023/07/21 02:19:35;;;;;;;0.90;0.90;;;24.50;52.50;;;;;;6117452;22;87998;-93
2023/07/21 02:22:01;;;;;;;1.13;0.80;;;24.50;52.00;;;;;;6116345;22;90034;-92
2023/07/21 02:24:26;;;;;;;0.70;0.70;;;24.50;52.50;;;;;;6115099;22;90008;-91
2023/07/21 02:26:53;;;;;;;1.30;1.20;;;24.50;52.50;;;;;;6145265;22;88936;-93
2023/07/21 02:29:19;;;;;;;1.10;1.00;;;24.50;52.10;;;;;;6120463;22;88031;-92
2023/07/21 02:31:45;;;;;;;1.38;1.27;;;24.50;52.50;;;;;;6122768;22;89113;-90
2023/07/21 02:34:11;;;;;;;1.05;0.93;;;24.50;52.50;;;;;;6121003;22;90856;-92
2023/07/21 02:36:37;;;;;;;1.10;1.00;;;24.50;52.50;;;;;;6121323;22;90593;-92
2023/07/21 02:39:04;;;;;;;1.30;1.10;;;24.50;51.90;;;;;;6121499;22;87111;-89
2023/07/21 02:41:30;;;;;;;1.02;0.98;;;24.50;52.00;;;;;;6147877;22;86152;-92
2023/07/21 02:43:56;;;;;;;1.38;1.10;;;24.50;52.40;;;;;;6119088;22;90342;-91
2023/07/21 02:46:21;;;;;;;0.93;0.90;;;24.50;52.00;;;;;;6120512;22;88406;-92
2023/07/21 02:48:47;;;;;;;1.00;1.00;;;24.50;52.10;;;;;;6147741;22;88990;-93
2023/07/21 02:51:13;;;;;;;0.80;0.80;;;24.50;52.50;;;;;;6122106;22;89737;-91
2023/07/21 02:53:39;;;;;;;1.42;0.90;;;24.50;52.40;;;;;;6120634;22;90580;-89
2023/07/21 02:56:05;;;;;;;1.25;1.15;;;24.50;52.50;;;;;;6147151;22;86786;-91
2023/07/21 02:58:32;;;;;;;0.80;0.75;;;24.50;52.60;;;;;;6120393;22;87262;-90
2023/07/21 03:00:59;;;;;;;1.83;0.90;;;24.40;52.10;;;;;;6120351;22;89194;-91
2023/07/21 03:03:25;;;;;;;1.23;1.13;;;24.40;52.10;;;;;;6119336;22;90203;-91
2023/07/21 03:05:52;;;;;;;1.20;1.10;;;24.50;52.60;;;;;;6148981;22;88569;-90
2023/07/21 03:08:26;;;;;;;1.08;0.85;;;24.40;52.50;;;;;;6120131;22;86952;-91
2023/07/21 03:10:56;;;;;;;1.10;1.00;;;24.50;52.50;;;;;;6120493;22;88245;-91
2023/07/21 03:13:24;;;;;;;0.80;0.80;;;24.50;52.00;;;;;;6120266;22;88419;-91
2023/07/21 03:15:51;;;;;;;1.15;1.08;;;24.50;52.00;;;;;;6119506;22;88219;-93
2023/07/21 03:18:17;;;;;;;1.00;1.00;;;24.50;52.50;;;;;;6147524;22;87401;-89
2023/07/21 03:20:43;;;;;;;1.00;0.90;;;24.50;52.40;;;;;;6121246;22;88621;-92
2023/07/21 03:23:09;;;;;;;1.38;0.95;;;24.40;52.50;;;;;;6122018;22;90468;-91
2023/07/21 03:25:42;;;;;;;1.10;1.00;;;24.40;52.00;;;;;;6148121;22;87763;-93
2023/07/21 03:28:08;;;;;;;1.15;1.05;;;24.50;52.00;;;;;;6147594;22;87498;-92
2023/07/21 03:30:33;;;;;;;0.93;0.77;;;24.50;52.30;;;;;;6121295;22;89147;-92
2023/07/21 03:32:59;;;;;;;1.63;1.08;;;24.50;52.50;;;;;;6122307;22;90161;-91
2023/07/21 03:35:24;;;;;;;1.08;1.00;;;24.50;52.40;;;;;;6146805;22;87331;-92
2023/07/21 03:37:50;;;;;;;1.08;0.80;;;24.50;52.10;;;;;;6120035;22;87764;-92
2023/07/21 03:40:16;;;;;;;1.00;0.90;;;24.40;53.30;;;;;;6119675;22;89647;-90
2023/07/21 03:42:41;;;;;;;1.20;1.08;;;24.40;52.40;;;;;;6146915;22;88510;-90
2023/07/21 03:45:07;;;;;;;2.58;1.00;;;24.40;52.50;;;;;;6147828;22;88706;-92
2023/07/21 03:47:35;;;;;;;0.95;0.95;;;24.50;52.40;;;;;;6145849;22;87489;-91
2023/07/21 03:50:01;;;;;;;1.02;0.90;;;24.40;52.50;;;;;;6119983;22;89400;-93
2023/07/21 03:52:27;;;;;;;0.80;0.80;;;24.40;52.50;;;;;;6120086;22;90522;-92
2023/07/21 03:54:53;;;;;;;1.25;1.15;;;24.40;52.50;;;;;;6120652;22;90048;-92
2023/07/21 03:57:20;;;;;;;0.70;0.70;;;24.40;52.50;;;;;;6121522;22;87108;-91
2023/07/21 03:59:47;;;;;;;1.13;1.02;;;24.40;52.30;;;;;;6148974;22;87772;-91
2023/07/21 04:02:13;;;;;;;1.10;0.82;;;24.40;52.20;;;;;;6120478;22;91651;-91
2023/07/21 04:04:38;;;;;;;0.90;0.90;;;24.40;52.10;;;;;;6120039;22;89804;-92
2023/07/21 04:07:05;;;;;;;1.08;0.98;;;24.40;52.50;;;;;;6149048;22;87269;-93
2023/07/21 04:09:33;;;;;;;1.60;1.10;;;24.40;52.10;;;;;;6121888;22;89124;-93
2023/07/21 04:11:59;;;;;;;1.27;1.17;;;24.40;52.50;;;;;;6122615;22;89481;-90
2023/07/21 04:14:25;;;;;;;1.00;0.90;;;24.40;52.60;;;;;;6148742;22;87619;-91
2023/07/21 04:16:51;;;;;;;1.38;1.00;;;24.40;52.50;;;;;;6122069;22;87307;-92
2023/07/21 04:19:17;;;;;;;1.58;1.15;;;24.40;52.10;;;;;;6149350;22;87389;-93
2023/07/21 04:21:43;;;;;;;0.90;0.90;;;24.40;52.40;;;;;;6149265;22;87792;-94
2023/07/21 04:24:10;;;;;;;1.10;1.00;;;24.40;52.60;;;;;;6150714;22;87481;-92
2023/07/21 04:26:36;;;;;;;1.13;1.05;;;24.40;52.60;;;;;;6122724;22;88588;-93
2023/07/21 04:29:02;;;;;;;0.90;0.82;;;24.40;52.10;;;;;;6122616;22;89515;-93
2023/07/21 04:31:28;;;;;;;0.80;0.80;;;24.30;52.50;;;;;;6150259;22;87920;-92
2023/07/21 04:33:55;;;;;;;1.10;0.98;;;24.30;52.70;;;;;;6121890;22;90301;-93
2023/07/21 04:36:21;;;;;;;1.20;1.10;;;24.30;52.10;;;;;;6148619;22;87347;-89
2023/07/21 04:38:47;;;;;;;1.08;0.98;;;24.30;52.50;;;;;;6149236;22;87333;-91
2023/07/21 04:41:13;;;;;;;0.82;0.80;;;24.30;52.60;;;;;;6122197;22;89531;-92
2023/07/21 04:43:39;;;;;;;0.65;0.65;;;24.30;52.80;;;;;;6149599;22;86708;-93
2023/07/21 04:46:05;;;;;;;0.90;0.77;;;24.30;53.30;;;;;;6123072;22;86920;-94
2023/07/21 04:48:31;;;;;;;2.75;0.93;;;24.30;52.40;;;;;;6122684;22;88820;-96
2023/07/21 04:50:57;;;;;;;0.90;0.90;;;24.30;52.20;;;;;;6124781;22;90828;-94
2023/07/21 04:53:23;;;;;;;2.97;1.05;;;24.30;52.60;;;;;;6128257;22;90593;-95
2023/07/21 04:55:54;;;;;;;0.90;0.90;;;24.30;52.20;;;;;;6128361;22;87154;-94
2023/07/21 04:58:19;;;;;;;138.68;27.25;;;24.30;53.00;;;;;;6127611;22;88811;-95
2023/07/21 05:00:46;;;;;;;115.40;25.20;;;24.30;52.90;;;;;;6132299;22;89824;-92
2023/07/21 05:03:12;;;;;;;81.78;19.80;;;24.30;52.20;;;;;;6130076;22;90185;-91
2023/07/21 05:05:39;;;;;;;59.45;15.00;;;24.20;52.40;;;;;;6126969;22;87457;-93
2023/07/21 05:08:04;;;;;;;44.58;12.60;;;24.30;52.60;;;;;;6119568;22;87814;-90
2023/07/21 05:10:31;;;;;;;37.67;10.07;;;24.30;52.80;;;;;;6144431;22;87786;-91
2023/07/21 05:12:57;;;;;;;28.65;8.82;;;24.30;52.20;;;;;;6146881;22;87402;-89
2023/07/21 05:15:24;;;;;;;28.10;8.98;;;24.20;52.40;;;;;;6149491;22;88267;-93
2023/07/21 05:17:50;;;;;;;17.42;6.00;;;24.20;52.60;;;;;;6121514;22;89502;-90
2023/07/21 05:20:19;;;;;;;22.80;6.15;;;24.20;53.60;;;;;;6119311;22;88872;-94
2023/07/21 05:22:46;;;;;;;9.57;5.00;;;24.30;53.10;;;;;;6153351;22;88461;-94
2023/07/21 05:25:16;;;;;;;10.05;5.35;;;24.20;52.80;;;;;;6125164;22;87152;-93
2023/07/21 05:27:42;;;;;;;23.15;6.38;;;24.10;53.00;;;;;;6122709;22;89117;-89
2023/07/21 05:30:11;;;;;;;42.58;9.50;;;24.10;53.40;;;;;;6121476;22;91057;-91
2023/07/21 05:32:37;;;;;;;;;;;24.20;53.40;;;;;;6151117;22;86292;-93
2023/07/21 05:35:10;;;;;;;39.65;11.32;;;24.20;53.20;;;;;;6151318;22;87367;-92
2023/07/21 05:37:36;;;;;;;41.30;11.77;;;24.20;52.80;;;;;;6146253;22;94607;-88
2023/07/21 05:40:05;;;;;;;37.55;9.85;;;24.20;52.50;;;;;;6147918;22;88622;-92
2023/07/21 05:42:31;;;;;;;28.13;8.85;;;24.20;52.60;;;;;;6121770;22;90985;-93
2023/07/21 05:44:56;;;;;;;29.40;8.98;;;24.20;52.60;;;;;;6150985;22;87200;-94
2023/07/21 05:47:22;;;;;;;25.10;7.72;;;24.20;53.10;;;;;;6121825;22;89054;-89
2023/07/21 05:49:48;;;;;;;21.10;6.63;;;24.20;52.90;;;;;;6149404;22;88633;-94
2023/07/21 05:52:13;;;;;;;16.83;5.85;;;24.20;53.10;;;;;;6149839;22;87940;-93
2023/07/21 05:54:41;;;;;;;20.23;6.57;;;24.20;53.00;;;;;;6149810;22;87356;-94
2023/07/21 05:57:07;;;;;;;16.42;5.75;;;24.30;53.20;;;;;;6150657;22;87918;-95
2023/07/21 05:59:33;;;;;;;24.17;5.35;;;24.30;52.80;;;;;;6150363;22;87919;-91
2023/07/21 06:01:59;;;;;;;13.93;5.72;;;24.30;52.60;;;;;;6149267;22;87389;-92
2023/07/21 06:04:25;;;;;;;14.52;5.32;;;24.30;53.10;;;;;;6148446;22;87828;-94
2023/07/21 06:06:50;;;;;;;11.43;3.55;;;24.20;53.00;;;;;;6149207;22;87808;-92
2023/07/21 06:09:17;;;;;;;9.07;3.67;;;24.20;53.20;;;;;;6150180;22;88286;-91
2023/07/21 06:11:42;;;;;;;11.02;3.80;;;24.30;52.90;;;;;;6150274;22;92020;-92
2023/07/21 06:14:08;;;;;;;13.32;4.18;;;24.30;53.30;;;;;;6123930;22;87180;-94
2023/07/21 06:16:34;;;;;;;11.50;4.05;;;24.30;53.50;;;;;;6148961;22;87142;-92
2023/07/21 06:19:00;;;;;;;9.20;3.63;;;24.30;53.20;;;;;;6121134;22;90621;-92
2023/07/21 06:21:26;;;;;;;8.55;3.63;;;24.30;52.90;;;;;;6149697;22;88170;-92
2023/07/21 06:23:53;;;;;;;9.63;4.25;;;24.30;52.70;;;;;;6149692;22;87355;-94
2023/07/21 06:26:22;;;;;;;8.80;3.53;;;24.30;53.20;;;;;;6149354;22;87716;-90
2023/07/21 06:28:47;;;;;;;6.35;3.47;;;24.30;53.30;;;;;;6149006;22;89091;-90
2023/07/21 06:31:13;;;;;;;10.18;3.75;;;24.30;53.00;;;;;;6149537;22;88016;-92
2023/07/21 06:33:38;;;;;;;6.40;3.15;;;24.30;53.50;;;;;;6150274;22;87297;-93
2023/07/21 06:36:05;;;;;;;6.93;3.25;;;24.30;53.00;;;;;;6151277;22;86873;-93
2023/07/21 06:38:31;;;;;;;7.90;3.70;;;24.40;53.40;;;;;;6149612;22;87878;-93
2023/07/21 06:40:56;;;;;;;7.55;3.75;;;24.30;53.40;;;;;;6123957;22;90438;-93
2023/07/21 06:43:22;;;;;;;5.97;3.00;;;24.30;53.50;;;;;;6150029;22;87289;-93
2023/07/21 06:45:48;;;;;;;6.07;3.53;;;24.40;53.60;;;;;;6123336;22;87997;-94
2023/07/21 06:48:13;;;;;;;7.75;2.75;;;24.40;53.40;;;;;;6150270;22;87445;-93
2023/07/21 06:50:39;;;;;;;5.47;2.83;;;24.40;53.30;;;;;;6122261;22;90443;-92
2023/07/21 06:53:06;;;;;;;5.78;2.92;;;24.40;53.40;;;;;;6148361;22;88161;-90
2023/07/21 06:55:32;;;;;;;5.47;2.78;;;24.40;53.00;;;;;;6122297;22;89314;-91
2023/07/21 06:57:58;;;;;;;4.43;3.00;;;24.40;53.40;;;;;;6149013;22;87588;-90
2023/07/21 07:00:24;;;;;;;4.50;2.53;;;24.40;53.40;;;;;;6123175;22;90493;-92
2023/07/21 07:02:49;;;;;;;3.90;3.10;;;24.40;53.50;;;;;;6150704;22;87485;-91
2023/07/21 07:05:18;;;;;;;5.88;3.00;;;24.40;53.60;;;;;;6148017;22;87222;-93
2023/07/21 07:07:44;;;;;;;4.25;2.80;;;24.40;53.30;;;;;;6121035;22;89789;-92
2023/07/21 07:10:10;;;;;;;6.40;3.05;;;24.40;54.00;;;;;;6148636;22;87984;-94
2023/07/21 07:12:38;;;;;;;6.10;2.90;;;24.50;53.80;;;;;;6149764;22;87546;-93
2023/07/21 07:15:04;;;;;;;3.90;2.90;;;24.50;53.80;;;;;;6150680;22;87535;-92
2023/07/21 07:17:29;;;;;;;3.15;2.63;;;24.50;54.50;;;;;;6147986;22;89130;-92
2023/07/21 07:19:55;;;;;;;3.83;3.15;;;24.50;53.50;;;;;;6148860;22;88115;-91
2023/07/21 07:22:21;;;;;;;5.18;3.53;;;24.50;53.60;;;;;;6122842;22;87432;-93
2023/07/21 07:24:46;;;;;;;4.70;3.15;;;24.50;53.70;;;;;;6149990;22;87423;-90
2023/07/21 07:27:12;;;;;;;4.55;2.97;;;24.50;54.00;;;;;;6151039;22;88087;-91
2023/07/21 07:29:37;;;;;;;3.78;2.70;;;24.50;53.60;;;;;;6148694;22;87647;-93
2023/07/21 07:32:03;;;;;;;5.28;3.38;;;24.50;53.60;;;;;;6148415;22;87249;-91
2023/07/21 07:34:29;;;;;;;6.38;2.70;;;24.50;53.90;;;;;;6148483;22;86752;-92
2023/07/21 07:36:57;;;;;;;3.08;2.78;;;24.50;54.00;;;;;;6121559;22;89607;-93
2023/07/21 07:39:24;;;;;;;3.33;2.65;;;24.50;53.50;;;;;;6149140;22;87722;-93
2023/07/21 07:41:51;;;;;;;4.78;3.35;;;24.50;54.00;;;;;;6123209;22;88364;-92
2023/07/21 07:44:18;;;;;;;5.00;2.42;;;24.50;53.40;;;;;;6149919;22;87135;-94
2023/07/21 07:46:43;;;;;;;2.83;2.58;;;24.50;53.60;;;;;;6150414;22;88957;-95
2023/07/21 07:49:09;;;;;;;4.38;2.50;;;24.50;53.60;;;;;;6149070;22;87607;-92
2023/07/21 07:51:40;;;;;;;4.57;2.88;;;24.50;53.50;;;;;;6149398;22;87749;-94
2023/07/21 07:54:07;;;;;;;3.63;3.10;;;24.50;54.00;;;;;;6150465;22;87494;-94
2023/07/21 07:56:33;;;;;;;4.30;2.60;;;24.50;54.00;;;;;;6149643;22;87431;-94
2023/07/21 07:58:59;;;;;;;3.65;2.75;;;24.50;53.80;;;;;;6122103;22;89384;-91
2023/07/21 08:01:26;;;;;;;3.92;2.97;;;24.50;53.60;;;;;;6121979;22;87553;-93
2023/07/21 08:03:53;;;;;;;6.35;3.08;;;24.50;53.80;;;;;;6147650;22;87517;-90
2023/07/21 08:06:19;;;;;;;4.72;2.63;;;24.50;53.70;;;;;;6147440;22;90404;-92
2023/07/21 08:08:45;;;;;;;3.83;3.35;;;24.50;54.10;;;;;;6149360;22;88319;-93
2023/07/21 08:11:11;;;;;;;4.15;2.85;;;24.50;53.80;;;;;;6122573;22;88125;-93
2023/07/21 08:13:38;;;;;;;3.50;3.20;;;24.50;53.60;;;;;;6149776;22;87537;-90
2023/07/21 08:16:15;;;;;;;3.08;2.78;;;24.50;53.50;;;;;;6122072;22;90448;-92
2023/07/21 08:18:40;;;;;;;2.70;2.40;;;24.50;53.70;;;;;;6145487;22;87672;-89
2023/07/21 08:21:27;;;;;;;5.63;3.20;;;24.50;53.60;;;;;;6148023;22;87664;-89
2023/07/21 08:23:54;;;;;;;3.17;2.67;;;24.50;54.00;;;;;;6149386;22;90363;-91
2023/07/21 08:26:20;;;;;;;3.28;2.60;;;24.50;54.00;;;;;;6149015;22;87020;-88
2023/07/21 08:28:46;;;;;;;3.20;2.40;;;24.50;53.60;;;;;;6122065;22;90334;-91
2023/07/21 08:31:11;;;;;;;2.88;2.22;;;24.60;53.60;;;;;;6122946;22;88803;-89
2023/07/21 08:33:38;;;;;;;3.17;2.85;;;24.60;54.20;;;;;;6149267;22;87389;-94
2023/07/21 08:36:05;;;;;;;4.57;2.70;;;24.60;54.10;;;;;;6150117;22;87277;-92
2023/07/21 08:38:33;;;;;;;2.63;2.17;;;24.60;54.10;;;;;;6122089;22;89612;-94
2023/07/21 08:41:05;;;;;;;2.33;2.10;;;24.50;53.60;;;;;;6149328;22;87914;-90
2023/07/21 08:43:31;;;;;;;3.05;1.65;;;24.60;53.70;;;;;;6122306;22;89717;-89
2023/07/21 08:46:01;;;;;;;2.70;1.88;;;24.60;53.60;;;;;;6149380;22;87725;-91
2023/07/21 08:48:27;;;;;;;2.20;2.00;;;24.60;53.70;;;;;;6149668;22;87307;-91
2023/07/21 08:50:57;;;;;;;2.60;2.28;;;24.60;53.80;;;;;;6124921;22;87385;-93
2023/07/21 08:53:26;;;;;;;3.08;2.10;;;24.60;53.70;;;;;;6123395;22;89426;-89
2023/07/21 08:56:02;;;;;;;2.75;2.25;;;24.60;53.80;;;;;;6122710;22;91299;-93
2023/07/21 08:58:28;;;;;;;1.75;1.65;;;24.70;53.40;;;;;;6146824;22;88105;-93
2023/07/21 09:00:56;;;;;;;1.90;1.70;;;24.60;54.00;;;;;;6144533;22;87454;-94
2023/07/21 09:03:26;;;;;;;2.50;1.80;;;24.60;53.60;;;;;;6148948;22;87091;-94
2023/07/21 09:05:55;;;;;;;2.08;1.90;;;24.60;53.70;;;;;;6150731;22;87150;-92
2023/07/21 09:08:22;;;;;;;;;;;24.60;54.00;;;;;;6150204;22;89811;-93
2023/07/21 09:10:48;;;;;;;2.33;1.65;;;24.60;53.90;;;;;;6151226;22;86900;-93
2023/07/21 09:13:15;;;;;;;2.30;1.77;;;24.60;53.40;;;;;;6122705;22;87956;-91
2023/07/21 09:15:48;;;;;;;2.45;2.00;;;24.60;53.50;;;;;;6149283;22;87441;-92
2023/07/21 09:18:14;;;;;;;3.13;1.80;;;24.60;53.60;;;;;;6149696;22;88045;-94
2023/07/21 09:20:40;;;;;;;2.47;1.60;;;24.60;54.10;;;;;;6148584;22;88009;-93
2023/07/21 09:23:07;;;;;;;3.35;2.47;;;24.60;53.50;;;;;;6122489;22;88114;-91
2023/07/21 09:25:33;;;;;;;1.80;1.63;;;24.60;53.60;;;;;;6122932;22;90823;-91
2023/07/21 09:28:01;;;;;;;2.00;1.77;;;24.70;53.80;;;;;;6149454;22;87414;-93
2023/07/21 09:30:27;;;;;;;2.75;1.70;;;24.60;53.30;;;;;;6135365;22;87325;-92
2023/07/21 09:32:55;;;;;;;2.38;1.80;;;24.70;53.40;;;;;;6150446;22;87243;-92
2023/07/21 09:35:21;;;;;;;2.65;1.80;;;24.70;52.80;;;;;;6149042;22;87418;-90
2023/07/21 09:37:51;;;;;;;1.95;1.63;;;24.60;52.80;;;;;;6150284;22;87893;-92
2023/07/21 09:40:17;;;;;;;2.78;1.88;;;24.60;53.20;;;;;;6149143;22;87179;-92
2023/07/21 09:42:43;;;;;;;2.08;1.88;;;24.60;53.30;;;;;;6149611;22;87502;-93
2023/07/21 09:45:09;;;;;;;2.33;1.80;;;24.60;52.80;;;;;;6149439;22;88223;-92
2023/07/21 09:47:38;;;;;;;1.95;1.63;;;24.60;53.20;;;;;;6148320;22;87866;-93
2023/07/21 09:50:04;;;;;;;3.47;1.40;;;24.60;52.60;;;;;;6150575;22;87452;-89
2023/07/21 09:52:37;;;;;;;2.28;1.77;;;24.60;52.90;;;;;;6149426;22;87674;-91
2023/07/21 09:55:15;;;;;;;2.10;1.63;;;24.60;52.50;;;;;;6122308;22;90471;-92
2023/07/21 09:57:44;;;;;;;3.42;1.70;;;24.60;52.70;;;;;;6150046;22;87530;-91
2023/07/21 10:00:14;;;;;;;2.10;1.70;;;24.60;52.60;;;;;;6151070;22;86895;-91
2023/07/21 10:02:45;;;;;;;1.63;1.52;;;24.60;52.60;;;;;;6123437;22;88880;-93
2023/07/21 10:05:11;;;;;;;1.73;1.40;;;24.60;52.20;;;;;;6122207;22;90236;-94
2023/07/21 10:07:46;;;;;;;2.05;1.42;;;24.70;52.30;;;;;;6123191;22;89988;-92
2023/07/21 10:10:12;;;;;;;1.63;1.45;;;24.70;52.10;;;;;;6147443;22;93313;-93
2023/07/21 10:12:49;;;;;;;1.85;1.65;;;24.70;52.10;;;;;;6122125;22;89895;-90
2023/07/21 10:15:21;;;;;;;1.52;1.42;;;24.70;51.80;;;;;;6149359;22;88886;-90
2023/07/21 10:18:07;;;;;;;2.17;1.70;;;24.70;51.90;;;;;;6149016;22;91934;-92
2023/07/21 10:20:51;;;;;;;1.90;1.33;;;24.70;51.70;;;;;;6148609;22;87418;-93
2023/07/21 10:23:22;;;;;;;2.08;1.67;;;24.70;51.60;;;;;;6122854;22;89805;-90
2023/07/21 10:25:51;;;;;;;1.40;1.30;;;24.70;51.70;;;;;;6122413;22;89604;-92
2023/07/21 10:28:31;;;;;;;2.17;1.60;;;24.70;51.80;;;;;;6122946;22;90305;-87
2023/07/21 10:31:25;;;;;;;1.77;1.38;;;24.70;52.30;;;;;;6123083;22;87342;-93
2023/07/21 10:34:06;;;;;;;2.13;1.63;;;24.70;52.00;;;;;;6148475;22;88778;-93
2023/07/21 10:36:53;;;;;;;3.92;1.67;;;24.70;51.60;;;;;;6149498;22;87908;-93
2023/07/21 10:39:24;;;;;;;1.85;1.50;;;24.70;51.60;;;;;;6136394;22;88148;-95
2023/07/21 10:41:52;;;;;;;2.50;1.30;;;24.70;51.90;;;;;;6122015;22;87122;-93
2023/07/21 10:44:18;;;;;;;1.73;1.40;;;24.70;51.50;;;;;;6122512;22;89229;-95
2023/07/21 10:46:49;;;;;;;1.50;1.27;;;24.70;51.40;;;;;;6148362;22;87368;-91
2023/07/21 10:49:16;;;;;;;1.55;1.45;;;24.70;51.30;;;;;;6148591;22;87748;-92
2023/07/21 10:51:44;;;;;;;2.00;1.67;;;24.70;51.70;;;;;;6148044;22;87250;-95
2023/07/21 10:54:11;;;;;;;1.30;1.20;;;24.70;52.20;;;;;;6117658;22;89550;-91
2023/07/21 10:56:48;;;;;;;1.60;1.50;;;24.70;51.50;;;;;;6144014;22;87517;-90
2023/07/21 10:59:15;;;;;;;2.58;1.50;;;24.70;50.90;;;;;;6143049;22;87861;-90
2023/07/21 11:01:46;;;;;;;2.85;1.63;;;24.70;50.90;;;;;;6117463;22;88517;-95
2023/07/21 11:04:14;;;;;;;1.77;1.38;;;24.70;51.00;;;;;;6144235;22;87389;-94
2023/07/21 11:06:44;;;;;;;1.80;1.52;;;24.70;51.20;;;;;;6120423;22;90945;-93
2023/07/21 11:09:13;;;;;;;1.75;1.25;;;24.70;50.60;;;;;;6121920;22;90175;-91
2023/07/21 11:11:46;;;;;;;2.22;1.60;;;24.70;50.80;;;;;;6147961;22;87294;-92
2023/07/21 11:14:30;;;;;;;2.25;1.48;;;24.70;50.60;;;;;;6148065;22;87225;-91
2023/07/21 11:16:56;;;;;;;1.70;1.42;;;24.70;50.30;;;;;;6120427;22;89306;-95
2023/07/21 11:19:26;;;;;;;1.63;1.45;;;24.70;50.10;;;;;;6148007;22;87595;-93
2023/07/21 11:21:53;;;;;;;2.00;1.52;;;24.70;50.00;;;;;;6148909;22;87369;-93
2023/07/21 11:24:23;;;;;;;1.50;1.40;;;24.70;50.20;;;;;;6122418;22;88403;-91
2023/07/21 11:26:49;;;;;;;1.60;1.20;;;24.70;50.00;;;;;;6147836;22;88992;-92
2023/07/21 11:29:16;;;;;;;2.80;1.40;;;24.70;50.20;;;;;;6148280;22;89097;-93
2023/07/21 11:31:43;;;;;;;3.80;1.45;;;24.70;49.60;;;;;;6121848;22;86963;-91
2023/07/21 11:34:25;;;;;;;1.48;1.38;;;24.70;49.60;;;;;;6121259;22;89645;-89
2023/07/21 11:36:58;;;;;;;1.77;1.20;;;24.70;49.30;;;;;;6122597;22;89141;-93
2023/07/21 11:39:24;;;;;;;2.80;1.30;;;24.70;49.20;;;;;;6148273;22;87852;-92
2023/07/21 11:41:58;;;;;;;2.28;1.70;;;24.70;49.30;;;;;;6149363;22;87391;-91
2023/07/21 11:44:30;;;;;;;2.03;1.35;;;24.70;49.00;;;;;;6148707;22;87396;-93
2023/07/21 11:47:12;;;;;;;2.03;1.60;;;24.70;49.10;;;;;;6121717;22;90731;-92
2023/07/21 11:49:43;;;;;;;2.22;1.42;;;24.70;49.40;;;;;;6121397;22;90171;-92
2023/07/21 11:52:10;;;;;;;2.13;1.35;;;24.70;49.50;;;;;;6148428;22;88799;-94
2023/07/21 11:54:40;;;;;;;2.45;1.60;;;24.70;49.60;;;;;;6121097;22;89172;-92
2023/07/21 11:57:06;;;;;;;1.40;1.30;;;24.70;49.50;;;;;;6149947;22;87996;-92
2023/07/21 11:59:32;;;;;;;3.53;1.27;;;24.60;49.10;;;;;;6149431;22;87137;-94
2023/07/21 12:01:58;;;;;;;1.60;1.50;;;24.60;49.30;;;;;;6149999;22;86794;-91
2023/07/21 12:04:24;;;;;;;1.85;1.60;;;24.60;49.30;;;;;;6147649;22;87413;-92
2023/07/21 12:06:51;;;;;;;2.10;1.60;;;24.60;49.10;;;;;;6122176;22;89167;-93
2023/07/21 12:09:17;;;;;;;2.05;1.17;;;24.60;49.50;;;;;;6148717;22;86676;-91
2023/07/21 12:11:43;;;;;;;1.75;1.60;;;24.60;49.20;;;;;;6121707;22;87157;-91
2023/07/21 12:14:09;;;;;;;1.88;1.42;;;24.60;49.90;;;;;;6149522;22;87464;-93
2023/07/21 12:16:35;;;;;;;1.65;1.30;;;24.60;49.30;;;;;;6147545;22;88996;-94
2023/07/21 12:19:04;;;;;;;1.50;1.40;;;24.60;49.20;;;;;;6149397;22;87225;-93
2023/07/21 12:21:31;;;;;;;2.47;1.50;;;24.60;49.60;;;;;;6123933;22;87601;-93
2023/07/21 12:23:57;;;;;;;1.98;1.30;;;24.50;49.60;;;;;;6151606;22;87320;-92
2023/07/21 12:26:23;;;;;;;1.83;1.50;;;24.50;49.70;;;;;;6150678;22;87540;-93
2023/07/21 12:28:50;;;;;;;1.80;1.60;;;24.50;49.70;;;;;;6122124;22;87650;-93
2023/07/21 12:31:18;;;;;;;3.13;1.55;;;24.50;49.70;;;;;;6122782;22;87669;-92
2023/07/21 12:33:45;;;;;;;1.90;1.53;;;24.60;49.90;;;;;;6150888;22;86930;-93
2023/07/21 12:36:15;;;;;;;2.10;1.60;;;24.50;50.30;;;;;;6150835;22;87472;-92
2023/07/21 12:38:41;;;;;;;3.33;1.60;;;24.60;49.90;;;;;;6123035;22;89054;-93
2023/07/21 12:41:08;;;;;;;3.22;1.67;;;24.60;50.20;;;;;;6149354;22;87790;-93
2023/07/21 12:43:33;;;;;;;2.08;1.58;;;24.60;50.30;;;;;;6122507;22;88000;-93
2023/07/21 12:46:03;;;;;;;2.53;1.80;;;24.60;50.90;;;;;;6149650;22;88572;-92
2023/07/21 12:48:30;;;;;;;;;;;24.70;50.80;;;;;;6149600;22;87065;-93